sensor_id;sensor_type;location;lat;lon;timestamp;temperature;humidity
26947;DHT22;14501;52.282;10.560;2023-01-31T00:01:25;2.80;99.90
26947;DHT22;14501;52.282;10.560;2023-01-31T00:03:57;2.80;99.90
26947;DHT22;14501;52.282;10.560;2023-01-31T00:06:35;2.80;99.90
26947;DHT22;14501;52.282;10.560;2023-01-31T00:09:02;2.80;99.90
26947;DHT22;14501;52.282;10.560;2023-01-31T00:11:29;2.70;99.90
26947;DHT22;14501;52.282;10.560;2023-01-31T00:13:56;2.70;99.90
26947;DHT22;14501;52.282;10.560;2023-01-31T00:16:22;2.60;99.90
26947;DHT22;14501;52.282;10.560;2023-01-31T00:18:48;2.70;99.90
26947;DHT22;14501;52.282;10.560;2023-01-31T00:21:22;2.70;99.90
26947;DHT22;14501;52.282;10.560;2023-01-31T00:23:49;2.80;99.90
26947;DHT22;14501;52.282;10.560;2023-01-31T00:26:17;2.90;99.90
26947;DHT22;14501;52.282;10.560;2023-01-31T00:28:45;3.10;99.90
26947;DHT22;14501;52.282;10.560;2023-01-31T00:31:12;3.20;99.90
26947;DHT22;14501;52.282;10.560;2023-01-31T00:33:39;3.20;99.90
26947;DHT22;14501;52.282;10.560;2023-01-31T00:36:08;3.20;99.90
26947;DHT22;14501;52.282;10.560;2023-01-31T00:38:35;3.10;99.90
26947;DHT22;14501;52.282;10.560;2023-01-31T00:41:02;3.10;99.90
26947;DHT22;14501;52.282;10.560;2023-01-31T00:43:28;3.00;99.90
26947;DHT22;14501;52.282;10.560;2023-01-31T00:45:54;3.00;99.90
26947;DHT22;14501;52.282;10.560;2023-01-31T00:48:20;3.00;99.90
26947;DHT22;14501;52.282;10.560;2023-01-31T00:50:46;3.00;99.90
26947;DHT22;14501;52.282;10.560;2023-01-31T00:53:11;2.90;99.90
26947;DHT22;14501;52.282;10.560;2023-01-31T00:55:37;2.90;99.90
26947;DHT22;14501;52.282;10.560;2023-01-31T00:58:03;2.80;99.90
26947;DHT22;14501;52.282;10.560;2023-01-31T01:00:28;2.80;99.90
26947;DHT22;14501;52.282;10.560;2023-01-31T01:02:54;2.70;99.90
26947;DHT22;14501;52.282;10.560;2023-01-31T01:05:19;2.70;99.90
26947;DHT22;14501;52.282;10.560;2023-01-31T01:07:45;2.60;99.90
26947;DHT22;14501;52.282;10.560;2023-01-31T01:10:11;2.70;99.90
26947;DHT22;14501;52.282;10.560;2023-01-31T01:12:37;2.80;99.90
26947;DHT22;14501;52.282;10.560;2023-01-31T01:15:03;2.80;99.90
26947;DHT22;14501;52.282;10.560;2023-01-31T01:17:29;2.90;99.90
26947;DHT22;14501;52.282;10.560;2023-01-31T01:19:56;2.90;99.90
26947;DHT22;14501;52.282;10.560;2023-01-31T01:22:22;2.90;99.90
26947;DHT22;14501;52.282;10.560;2023-01-31T01:24:47;2.90;99.90
26947;DHT22;14501;52.282;10.560;2023-01-31T01:27:13;2.90;99.90
26947;DHT22;14501;52.282;10.560;2023-01-31T01:29:39;2.80;99.90
26947;DHT22;14501;52.282;10.560;2023-01-31T01:32:05;2.80;99.90
26947;DHT22;14501;52.282;10.560;2023-01-31T01:34:32;2.90;99.90
26947;DHT22;14501;52.282;10.560;2023-01-31T01:36:58;2.90;99.90
26947;DHT22;14501;52.282;10.560;2023-01-31T01:39:24;3.00;99.90
26947;DHT22;14501;52.282;10.560;2023-01-31T01:41:50;3.10;99.90
26947;DHT22;14501;52.282;10.560;2023-01-31T01:50:04;3.40;99.90
26947;DHT22;14501;52.282;10.560;2023-01-31T01:52:33;3.40;99.90
26947;DHT22;14501;52.282;10.560;2023-01-31T01:55:21;3.50;99.90
26947;DHT22;14501;52.282;10.560;2023-01-31T01:57:51;3.40;99.90
26947;DHT22;14501;52.282;10.560;2023-01-31T02:00:21;3.50;99.90
26947;DHT22;14501;52.282;10.560;2023-01-31T02:02:48;3.60;99.90
26947;DHT22;14501;52.282;10.560;2023-01-31T02:05:19;3.60;99.90
26947;DHT22;14501;52.282;10.560;2023-01-31T02:07:46;3.70;99.90
26947;DHT22;14501;52.282;10.560;2023-01-31T02:10:16;3.60;99.90
26947;DHT22;14501;52.282;10.560;2023-01-31T02:12:44;3.60;99.90
26947;DHT22;14501;52.282;10.560;2023-01-31T02:15:10;3.70;99.90
26947;DHT22;14501;52.282;10.560;2023-01-31T02:17:36;3.70;99.90
26947;DHT22;14501;52.282;10.560;2023-01-31T02:23:02;3.60;99.90
26947;DHT22;14501;52.282;10.560;2023-01-31T02:26:09;3.70;99.90
26947;DHT22;14501;52.282;10.560;2023-01-31T02:39:40;3.50;99.90
26947;DHT22;14501;52.282;10.560;2023-01-31T02:42:22;3.40;99.90
26947;DHT22;14501;52.282;10.560;2023-01-31T02:44:54;3.30;99.90
26947;DHT22;14501;52.282;10.560;2023-01-31T02:49:55;3.20;99.90
26947;DHT22;14501;52.282;10.560;2023-01-31T02:52:36;3.10;99.90
26947;DHT22;14501;52.282;10.560;2023-01-31T02:57:56;3.00;99.90
26947;DHT22;14501;52.282;10.560;2023-01-31T03:00:24;3.00;99.90
26947;DHT22;14501;52.282;10.560;2023-01-31T03:02:50;3.00;99.90
26947;DHT22;14501;52.282;10.560;2023-01-31T03:05:17;3.00;99.90
26947;DHT22;14501;52.282;10.560;2023-01-31T03:07:47;4.50;99.90
26947;DHT22;14501;52.282;10.560;2023-01-31T03:10:38;3.10;99.90
26947;DHT22;14501;52.282;10.560;2023-01-31T03:21:41;3.30;99.90
26947;DHT22;14501;52.282;10.560;2023-01-31T03:24:08;3.40;99.90
26947;DHT22;14501;52.282;10.560;2023-01-31T03:26:35;3.40;99.90
26947;DHT22;14501;52.282;10.560;2023-01-31T03:29:02;3.50;99.90
26947;DHT22;14501;52.282;10.560;2023-01-31T03:31:40;3.50;99.90
26947;DHT22;14501;52.282;10.560;2023-01-31T03:34:08;3.40;99.90
26947;DHT22;14501;52.282;10.560;2023-01-31T03:42:11;3.50;99.90
26947;DHT22;14501;52.282;10.560;2023-01-31T03:45:11;3.50;99.90
26947;DHT22;14501;52.282;10.560;2023-01-31T03:47:42;3.50;99.90
26947;DHT22;14501;52.282;10.560;2023-01-31T03:50:12;3.50;99.90
26947;DHT22;14501;52.282;10.560;2023-01-31T03:52:44;3.50;99.90
26947;DHT22;14501;52.282;10.560;2023-01-31T03:55:22;3.50;99.90
26947;DHT22;14501;52.282;10.560;2023-01-31T03:57:51;3.50;99.90
26947;DHT22;14501;52.282;10.560;2023-01-31T04:00:20;3.50;99.90
26947;DHT22;14501;52.282;10.560;2023-01-31T04:02:51;3.50;99.90
26947;DHT22;14501;52.282;10.560;2023-01-31T04:05:22;3.40;99.90
26947;DHT22;14501;52.282;10.560;2023-01-31T04:07:48;3.30;99.90
26947;DHT22;14501;52.282;10.560;2023-01-31T04:10:17;3.20;99.90
26947;DHT22;14501;52.282;10.560;2023-01-31T04:12:44;3.10;99.90
26947;DHT22;14501;52.282;10.560;2023-01-31T04:15:11;3.10;99.90
26947;DHT22;14501;52.282;10.560;2023-01-31T04:17:36;3.00;99.90
26947;DHT22;14501;52.282;10.560;2023-01-31T04:20:02;3.00;99.90
26947;DHT22;14501;52.282;10.560;2023-01-31T04:22:28;2.90;99.90
26947;DHT22;14501;52.282;10.560;2023-01-31T04:24:54;2.90;99.90
26947;DHT22;14501;52.282;10.560;2023-01-31T04:27:19;2.90;99.90
26947;DHT22;14501;52.282;10.560;2023-01-31T04:29:45;2.90;99.90
26947;DHT22;14501;52.282;10.560;2023-01-31T04:32:11;2.80;99.90
26947;DHT22;14501;52.282;10.560;2023-01-31T04:34:36;2.80;99.90
26947;DHT22;14501;52.282;10.560;2023-01-31T04:37:02;2.80;99.90
26947;DHT22;14501;52.282;10.560;2023-01-31T04:39:27;2.70;99.90
26947;DHT22;14501;52.282;10.560;2023-01-31T04:41:53;2.80;99.90
26947;DHT22;14501;52.282;10.560;2023-01-31T04:44:18;2.80;99.90
26947;DHT22;14501;52.282;10.560;2023-01-31T04:46:44;2.80;99.90
26947;DHT22;14501;52.282;10.560;2023-01-31T04:49:13;2.90;99.90
26947;DHT22;14501;52.282;10.560;2023-01-31T04:51:39;2.90;99.90
26947;DHT22;14501;52.282;10.560;2023-01-31T04:54:05;3.00;99.90
26947;DHT22;14501;52.282;10.560;2023-01-31T04:56:31;3.10;99.90
26947;DHT22;14501;52.282;10.560;2023-01-31T04:58:57;3.20;99.90
26947;DHT22;14501;52.282;10.560;2023-01-31T05:01:24;3.20;99.90
26947;DHT22;14501;52.282;10.560;2023-01-31T05:03:49;3.20;99.90
26947;DHT22;14501;52.282;10.560;2023-01-31T05:06:15;3.20;99.90
26947;DHT22;14501;52.282;10.560;2023-01-31T05:08:41;3.10;99.90
26947;DHT22;14501;52.282;10.560;2023-01-31T05:11:07;3.10;99.90
26947;DHT22;14501;52.282;10.560;2023-01-31T05:13:33;3.10;99.90
26947;DHT22;14501;52.282;10.560;2023-01-31T05:16:07;3.20;99.90
26947;DHT22;14501;52.282;10.560;2023-01-31T05:18:34;3.10;99.90
26947;DHT22;14501;52.282;10.560;2023-01-31T05:21:00;3.20;99.90
26947;DHT22;14501;52.282;10.560;2023-01-31T05:23:27;3.10;99.90
26947;DHT22;14501;52.282;10.560;2023-01-31T05:25:53;3.10;99.90
26947;DHT22;14501;52.282;10.560;2023-01-31T05:28:19;3.00;99.90
26947;DHT22;14501;52.282;10.560;2023-01-31T05:30:45;3.00;99.90
26947;DHT22;14501;52.282;10.560;2023-01-31T05:33:11;3.00;99.90
26947;DHT22;14501;52.282;10.560;2023-01-31T05:35:36;3.00;99.90
26947;DHT22;14501;52.282;10.560;2023-01-31T05:38:03;3.10;99.90
26947;DHT22;14501;52.282;10.560;2023-01-31T05:40:29;3.10;99.90
26947;DHT22;14501;52.282;10.560;2023-01-31T05:42:56;3.20;99.90
26947;DHT22;14501;52.282;10.560;2023-01-31T05:45:22;3.20;99.90
26947;DHT22;14501;52.282;10.560;2023-01-31T05:47:48;3.30;99.90
26947;DHT22;14501;52.282;10.560;2023-01-31T05:50:14;3.30;99.90
26947;DHT22;14501;52.282;10.560;2023-01-31T05:52:40;3.30;99.90
26947;DHT22;14501;52.282;10.560;2023-01-31T05:55:06;3.30;99.90
26947;DHT22;14501;52.282;10.560;2023-01-31T05:57:32;3.30;99.90
26947;DHT22;14501;52.282;10.560;2023-01-31T05:59:57;3.30;99.90
26947;DHT22;14501;52.282;10.560;2023-01-31T06:02:23;3.30;99.90
26947;DHT22;14501;52.282;10.560;2023-01-31T06:04:48;3.30;99.90
26947;DHT22;14501;52.282;10.560;2023-01-31T06:07:14;3.30;99.90
26947;DHT22;14501;52.282;10.560;2023-01-31T06:09:40;3.20;99.90
26947;DHT22;14501;52.282;10.560;2023-01-31T06:12:09;3.30;99.90
26947;DHT22;14501;52.282;10.560;2023-01-31T06:14:36;3.30;99.90
26947;DHT22;14501;52.282;10.560;2023-01-31T06:17:02;3.40;99.90
26947;DHT22;14501;52.282;10.560;2023-01-31T06:19:28;3.30;99.90
26947;DHT22;14501;52.282;10.560;2023-01-31T06:21:54;3.40;99.90
26947;DHT22;14501;52.282;10.560;2023-01-31T06:24:20;3.30;99.90
26947;DHT22;14501;52.282;10.560;2023-01-31T06:26:46;3.40;99.90
26947;DHT22;14501;52.282;10.560;2023-01-31T06:29:11;3.40;99.90
26947;DHT22;14501;52.282;10.560;2023-01-31T06:31:37;3.40;99.90
26947;DHT22;14501;52.282;10.560;2023-01-31T06:34:03;3.40;99.90
26947;DHT22;14501;52.282;10.560;2023-01-31T06:36:32;3.40;99.90
26947;DHT22;14501;52.282;10.560;2023-01-31T06:38:58;3.50;99.90
26947;DHT22;14501;52.282;10.560;2023-01-31T06:41:24;2.40;99.90
26947;DHT22;14501;52.282;10.560;2023-01-31T06:43:50;3.40;99.90
26947;DHT22;14501;52.282;10.560;2023-01-31T06:46:16;3.40;99.90
26947;DHT22;14501;52.282;10.560;2023-01-31T06:48:42;3.40;99.90
26947;DHT22;14501;52.282;10.560;2023-01-31T06:51:08;3.40;99.90
26947;DHT22;14501;52.282;10.560;2023-01-31T06:53:34;3.40;99.90
26947;DHT22;14501;52.282;10.560;2023-01-31T06:55:59;3.40;99.90
26947;DHT22;14501;52.282;10.560;2023-01-31T06:58:25;3.40;99.90
26947;DHT22;14501;52.282;10.560;2023-01-31T07:00:51;3.50;99.90
26947;DHT22;14501;52.282;10.560;2023-01-31T07:03:16;3.50;99.90
26947;DHT22;14501;52.282;10.560;2023-01-31T07:05:44;3.50;99.90
26947;DHT22;14501;52.282;10.560;2023-01-31T07:08:10;3.50;99.90
26947;DHT22;14501;52.282;10.560;2023-01-31T07:10:35;3.50;99.90
26947;DHT22;14501;52.282;10.560;2023-01-31T07:13:01;3.60;99.90
26947;DHT22;14501;52.282;10.560;2023-01-31T07:15:26;3.60;99.90
26947;DHT22;14501;52.282;10.560;2023-01-31T07:18:01;3.60;99.90
26947;DHT22;14501;52.282;10.560;2023-01-31T07:20:27;3.60;99.90
26947;DHT22;14501;52.282;10.560;2023-01-31T07:22:56;3.70;99.90
26947;DHT22;14501;52.282;10.560;2023-01-31T07:25:23;3.80;99.90
26947;DHT22;14501;52.282;10.560;2023-01-31T07:27:49;3.80;99.90
26947;DHT22;14501;52.282;10.560;2023-01-31T07:30:15;3.90;99.90
26947;DHT22;14501;52.282;10.560;2023-01-31T07:32:41;3.90;99.90
26947;DHT22;14501;52.282;10.560;2023-01-31T07:35:07;4.20;99.90
26947;DHT22;14501;52.282;10.560;2023-01-31T07:37:32;4.00;99.90
26947;DHT22;14501;52.282;10.560;2023-01-31T07:39:58;6.30;99.90
26947;DHT22;14501;52.282;10.560;2023-01-31T07:42:24;4.10;99.90
26947;DHT22;14501;52.282;10.560;2023-01-31T07:44:49;4.20;99.90
26947;DHT22;14501;52.282;10.560;2023-01-31T07:47:15;4.20;99.90
26947;DHT22;14501;52.282;10.560;2023-01-31T07:49:41;4.30;99.90
26947;DHT22;14501;52.282;10.560;2023-01-31T07:52:06;6.00;99.90
26947;DHT22;14501;52.282;10.560;2023-01-31T07:54:32;4.40;99.90
26947;DHT22;14501;52.282;10.560;2023-01-31T07:56:57;4.40;99.90
26947;DHT22;14501;52.282;10.560;2023-01-31T07:59:23;4.60;99.90
26947;DHT22;14501;52.282;10.560;2023-01-31T08:01:49;4.50;99.90
26947;DHT22;14501;52.282;10.560;2023-01-31T08:04:33;4.50;99.90
26947;DHT22;14501;52.282;10.560;2023-01-31T08:06:59;4.50;99.90
26947;DHT22;14501;52.282;10.560;2023-01-31T08:09:27;4.60;99.90
26947;DHT22;14501;52.282;10.560;2023-01-31T08:11:53;4.60;99.90
26947;DHT22;14501;52.282;10.560;2023-01-31T08:14:19;4.80;99.90
26947;DHT22;14501;52.282;10.560;2023-01-31T08:16:50;4.50;99.90
26947;DHT22;14501;52.282;10.560;2023-01-31T08:19:16;5.00;99.90
26947;DHT22;14501;52.282;10.560;2023-01-31T08:21:41;4.90;99.90
26947;DHT22;14501;52.282;10.560;2023-01-31T08:24:07;5.00;99.90
26947;DHT22;14501;52.282;10.560;2023-01-31T08:26:33;4.90;99.90
26947;DHT22;14501;52.282;10.560;2023-01-31T08:28:59;5.00;99.90
26947;DHT22;14501;52.282;10.560;2023-01-31T08:31:26;5.10;99.90
26947;DHT22;14501;52.282;10.560;2023-01-31T08:33:52;5.10;99.90
26947;DHT22;14501;52.282;10.560;2023-01-31T08:36:26;5.20;99.90
26947;DHT22;14501;52.282;10.560;2023-01-31T08:38:54;5.30;99.90
26947;DHT22;14501;52.282;10.560;2023-01-31T08:41:21;5.70;99.90
26947;DHT22;14501;52.282;10.560;2023-01-31T08:43:48;5.30;99.90
26947;DHT22;14501;52.282;10.560;2023-01-31T08:46:14;5.00;99.90
26947;DHT22;14501;52.282;10.560;2023-01-31T08:48:40;5.50;99.90
26947;DHT22;14501;52.282;10.560;2023-01-31T08:51:09;8.00;99.90
26947;DHT22;14501;52.282;10.560;2023-01-31T08:53:40;5.50;99.90
26947;DHT22;14501;52.282;10.560;2023-01-31T08:56:07;5.20;99.90
26947;DHT22;14501;52.282;10.560;2023-01-31T08:58:33;5.70;99.90
26947;DHT22;14501;52.282;10.560;2023-01-31T09:01:26;6.40;99.90
26947;DHT22;14501;52.282;10.560;2023-01-31T09:03:51;6.40;99.90
26947;DHT22;14501;52.282;10.560;2023-01-31T09:06:22;7.30;99.90
26947;DHT22;14501;52.282;10.560;2023-01-31T09:08:48;8.50;99.90
26947;DHT22;14501;52.282;10.560;2023-01-31T09:11:14;7.80;99.90
26947;DHT22;14501;52.282;10.560;2023-01-31T09:13:44;7.50;99.90
26947;DHT22;14501;52.282;10.560;2023-01-31T09:16:11;8.00;99.90
26947;DHT22;14501;52.282;10.560;2023-01-31T09:18:38;7.00;99.90
26947;DHT22;14501;52.282;10.560;2023-01-31T09:21:06;7.50;99.90
26947;DHT22;14501;52.282;10.560;2023-01-31T09:23:33;7.00;99.90
26947;DHT22;14501;52.282;10.560;2023-01-31T09:25:59;6.40;99.90
26947;DHT22;14501;52.282;10.560;2023-01-31T09:28:25;8.00;99.90
26947;DHT22;14501;52.282;10.560;2023-01-31T09:30:51;7.20;99.90
26947;DHT22;14501;52.282;10.560;2023-01-31T09:33:21;7.10;99.90
26947;DHT22;14501;52.282;10.560;2023-01-31T09:36:02;7.00;99.90
26947;DHT22;14501;52.282;10.560;2023-01-31T09:38:28;6.90;99.90
26947;DHT22;14501;52.282;10.560;2023-01-31T09:40:54;7.00;99.90
26947;DHT22;14501;52.282;10.560;2023-01-31T09:43:24;7.70;99.90
26947;DHT22;14501;52.282;10.560;2023-01-31T09:45:53;7.10;99.90
26947;DHT22;14501;52.282;10.560;2023-01-31T09:48:24;7.00;99.90
26947;DHT22;14501;52.282;10.560;2023-01-31T09:50:52;7.00;99.90
26947;DHT22;14501;52.282;10.560;2023-01-31T09:53:22;8.20;99.90
26947;DHT22;14501;52.282;10.560;2023-01-31T09:58:53;6.40;99.90
26947;DHT22;14501;52.282;10.560;2023-01-31T10:04:19;6.40;99.90
26947;DHT22;14501;52.282;10.560;2023-01-31T10:07:14;6.50;99.90
26947;DHT22;14501;52.282;10.560;2023-01-31T10:10:10;6.50;99.90
26947;DHT22;14501;52.282;10.560;2023-01-31T10:12:50;6.50;99.90
26947;DHT22;14501;52.282;10.560;2023-01-31T10:17:52;6.40;99.90
26947;DHT22;14501;52.282;10.560;2023-01-31T10:20:33;6.40;99.90
26947;DHT22;14501;52.282;10.560;2023-01-31T10:23:14;6.30;99.90
26947;DHT22;14501;52.282;10.560;2023-01-31T10:25:58;6.20;99.90
26947;DHT22;14501;52.282;10.560;2023-01-31T10:33:58;5.80;99.90
26947;DHT22;14501;52.282;10.560;2023-01-31T10:39:35;5.50;99.90
26947;DHT22;14501;52.282;10.560;2023-01-31T10:42:17;5.20;99.90
26947;DHT22;14501;52.282;10.560;2023-01-31T10:44:53;5.20;99.90
26947;DHT22;14501;52.282;10.560;2023-01-31T10:47:23;5.20;99.90
26947;DHT22;14501;52.282;10.560;2023-01-31T10:49:49;5.10;99.90
26947;DHT22;14501;52.282;10.560;2023-01-31T10:57:54;5.00;99.90
26947;DHT22;14501;52.282;10.560;2023-01-31T11:00:30;5.00;99.90
26947;DHT22;14501;52.282;10.560;2023-01-31T11:02:57;5.00;99.90
26947;DHT22;14501;52.282;10.560;2023-01-31T11:05:25;5.10;99.90
26947;DHT22;14501;52.282;10.560;2023-01-31T11:07:52;5.60;99.90
26947;DHT22;14501;52.282;10.560;2023-01-31T11:10:29;7.30;99.90
26947;DHT22;14501;52.282;10.560;2023-01-31T11:13:01;5.00;99.90
26947;DHT22;14501;52.282;10.560;2023-01-31T11:15:35;5.30;99.90
26947;DHT22;14501;52.282;10.560;2023-01-31T11:18:02;5.10;99.90
26947;DHT22;14501;52.282;10.560;2023-01-31T11:20:34;5.00;99.90
26947;DHT22;14501;52.282;10.560;2023-01-31T11:23:01;5.10;99.90
26947;DHT22;14501;52.282;10.560;2023-01-31T11:25:28;5.20;99.90
26947;DHT22;14501;52.282;10.560;2023-01-31T11:28:00;5.20;99.90
26947;DHT22;14501;52.282;10.560;2023-01-31T11:32:55;5.80;99.90
26947;DHT22;14501;52.282;10.560;2023-01-31T11:35:24;5.60;99.90
26947;DHT22;14501;52.282;10.560;2023-01-31T11:38:02;5.50;99.90
26947;DHT22;14501;52.282;10.560;2023-01-31T11:40:37;5.60;99.90
26947;DHT22;14501;52.282;10.560;2023-01-31T11:43:05;5.40;99.90
26947;DHT22;14501;52.282;10.560;2023-01-31T11:45:36;6.90;99.90
26947;DHT22;14501;52.282;10.560;2023-01-31T11:48:13;5.50;99.90
26947;DHT22;14501;52.282;10.560;2023-01-31T11:50:44;7.30;99.90
26947;DHT22;14501;52.282;10.560;2023-01-31T11:53:32;5.50;99.90
26947;DHT22;14501;52.282;10.560;2023-01-31T11:56:27;7.20;99.90
26947;DHT22;14501;52.282;10.560;2023-01-31T11:58:57;5.50;99.90
26947;DHT22;14501;52.282;10.560;2023-01-31T12:01:26;5.50;99.90
26947;DHT22;14501;52.282;10.560;2023-01-31T12:04:02;5.50;99.90
26947;DHT22;14501;52.282;10.560;2023-01-31T12:06:41;5.50;99.90
26947;DHT22;14501;52.282;10.560;2023-01-31T12:09:28;5.50;99.90
26947;DHT22;14501;52.282;10.560;2023-01-31T12:11:59;5.70;99.90
26947;DHT22;14501;52.282;10.560;2023-01-31T12:14:41;5.30;99.90
26947;DHT22;14501;52.282;10.560;2023-01-31T12:17:14;5.40;99.90
26947;DHT22;14501;52.282;10.560;2023-01-31T12:22:11;5.40;99.90
26947;DHT22;14501;52.282;10.560;2023-01-31T12:32:48;5.40;99.90
26947;DHT22;14501;52.282;10.560;2023-01-31T12:35:36;5.40;99.90
26947;DHT22;14501;52.282;10.560;2023-01-31T12:41:07;5.40;99.90
26947;DHT22;14501;52.282;10.560;2023-01-31T12:43:42;5.40;99.90
26947;DHT22;14501;52.282;10.560;2023-01-31T12:46:24;5.30;99.90
26947;DHT22;14501;52.282;10.560;2023-01-31T12:52:03;5.30;99.90
26947;DHT22;14501;52.282;10.560;2023-01-31T12:59:55;5.40;99.90
26947;DHT22;14501;52.282;10.560;2023-01-31T13:02:49;5.40;99.90
26947;DHT22;14501;52.282;10.560;2023-01-31T13:08:27;5.40;99.90
26947;DHT22;14501;52.282;10.560;2023-01-31T13:11:09;5.30;99.90
26947;DHT22;14501;52.282;10.560;2023-01-31T13:13:57;5.30;99.90
26947;DHT22;14501;52.282;10.560;2023-01-31T13:19:02;5.40;99.90
26947;DHT22;14501;52.282;10.560;2023-01-31T13:21:35;5.40;99.90
26947;DHT22;14501;52.282;10.560;2023-01-31T13:24:16;5.30;99.90
26947;DHT22;14501;52.282;10.560;2023-01-31T13:26:47;5.30;99.90
26947;DHT22;14501;52.282;10.560;2023-01-31T13:29:27;5.20;99.90
26947;DHT22;14501;52.282;10.560;2023-01-31T13:32:08;5.20;99.90
26947;DHT22;14501;52.282;10.560;2023-01-31T13:37:12;5.20;99.90
26947;DHT22;14501;52.282;10.560;2023-01-31T13:39:42;5.20;99.90
26947;DHT22;14501;52.282;10.560;2023-01-31T13:42:13;5.30;99.90
26947;DHT22;14501;52.282;10.560;2023-01-31T13:44:40;5.10;99.90
26947;DHT22;14501;52.282;10.560;2023-01-31T13:47:15;6.90;99.90
26947;DHT22;14501;52.282;10.560;2023-01-31T13:52:35;5.20;99.90
26947;DHT22;14501;52.282;10.560;2023-01-31T13:55:14;5.20;99.90
26947;DHT22;14501;52.282;10.560;2023-01-31T13:57:44;5.20;99.90
26947;DHT22;14501;52.282;10.560;2023-01-31T14:03:19;5.10;99.90
26947;DHT22;14501;52.282;10.560;2023-01-31T14:05:56;5.10;99.90
26947;DHT22;14501;52.282;10.560;2023-01-31T14:08:33;5.10;99.90
26947;DHT22;14501;52.282;10.560;2023-01-31T14:11:02;5.20;99.90
26947;DHT22;14501;52.282;10.560;2023-01-31T14:13:42;5.10;99.90
26947;DHT22;14501;52.282;10.560;2023-01-31T14:16:34;5.20;99.90
26947;DHT22;14501;52.282;10.560;2023-01-31T14:19:02;5.20;99.90
26947;DHT22;14501;52.282;10.560;2023-01-31T14:23:55;5.20;99.90
26947;DHT22;14501;52.282;10.560;2023-01-31T14:29:27;5.20;99.90
26947;DHT22;14501;52.282;10.560;2023-01-31T14:31:54;5.20;99.90
26947;DHT22;14501;52.282;10.560;2023-01-31T14:34:26;5.20;99.90
26947;DHT22;14501;52.282;10.560;2023-01-31T14:48:17;5.20;99.90
26947;DHT22;14501;52.282;10.560;2023-01-31T14:51:02;5.30;99.90
26947;DHT22;14501;52.282;10.560;2023-01-31T14:59:31;5.30;99.90
26947;DHT22;14501;52.282;10.560;2023-01-31T15:01:58;5.30;99.90
26947;DHT22;14501;52.282;10.560;2023-01-31T15:04:25;5.30;99.90
26947;DHT22;14501;52.282;10.560;2023-01-31T15:06:53;5.30;99.90
26947;DHT22;14501;52.282;10.560;2023-01-31T15:11:56;5.40;99.90
26947;DHT22;14501;52.282;10.560;2023-01-31T15:14:26;5.30;99.90
26947;DHT22;14501;52.282;10.560;2023-01-31T15:17:19;5.40;99.90
26947;DHT22;14501;52.282;10.560;2023-01-31T15:19:51;5.40;99.90
26947;DHT22;14501;52.282;10.560;2023-01-31T15:22:20;5.40;99.90
26947;DHT22;14501;52.282;10.560;2023-01-31T15:24:51;5.50;99.90
26947;DHT22;14501;52.282;10.560;2023-01-31T15:27:25;5.50;99.90
26947;DHT22;14501;52.282;10.560;2023-01-31T15:30:25;5.50;99.90
26947;DHT22;14501;52.282;10.560;2023-01-31T15:32:59;5.50;99.90
26947;DHT22;14501;52.282;10.560;2023-01-31T15:35:43;5.60;99.90
26947;DHT22;14501;52.282;10.560;2023-01-31T15:43:36;5.50;99.90
26947;DHT22;14501;52.282;10.560;2023-01-31T15:46:29;5.60;99.90
26947;DHT22;14501;52.282;10.560;2023-01-31T15:48:55;5.60;99.90
26947;DHT22;14501;52.282;10.560;2023-01-31T15:51:21;5.70;99.90
26947;DHT22;14501;52.282;10.560;2023-01-31T15:53:48;5.70;99.90
26947;DHT22;14501;52.282;10.560;2023-01-31T15:56:20;7.70;99.90
26947;DHT22;14501;52.282;10.560;2023-01-31T15:58:50;5.70;99.90
26947;DHT22;14501;52.282;10.560;2023-01-31T16:01:16;5.70;99.90
26947;DHT22;14501;52.282;10.560;2023-01-31T16:06:31;5.80;99.90
26947;DHT22;14501;52.282;10.560;2023-01-31T16:09:00;5.80;99.90
26947;DHT22;14501;52.282;10.560;2023-01-31T16:11:27;6.70;99.90
26947;DHT22;14501;52.282;10.560;2023-01-31T16:13:56;5.80;99.90
26947;DHT22;14501;52.282;10.560;2023-01-31T16:16:23;5.80;99.90
26947;DHT22;14501;52.282;10.560;2023-01-31T16:18:52;6.40;99.90
26947;DHT22;14501;52.282;10.560;2023-01-31T16:21:43;5.90;99.90
26947;DHT22;14501;52.282;10.560;2023-01-31T16:24:20;5.80;99.90
26947;DHT22;14501;52.282;10.560;2023-01-31T16:29:29;5.90;99.90
26947;DHT22;14501;52.282;10.560;2023-01-31T16:31:57;6.50;99.90
26947;DHT22;14501;52.282;10.560;2023-01-31T16:36:52;6.00;99.90
26947;DHT22;14501;52.282;10.560;2023-01-31T16:42:23;6.00;99.90
26947;DHT22;14501;52.282;10.560;2023-01-31T16:44:50;6.00;99.90
26947;DHT22;14501;52.282;10.560;2023-01-31T16:52:42;5.90;99.90
26947;DHT22;14501;52.282;10.560;2023-01-31T16:55:20;6.00;99.90
26947;DHT22;14501;52.282;10.560;2023-01-31T16:57:46;5.80;99.90
26947;DHT22;14501;52.282;10.560;2023-01-31T17:02:51;5.80;99.90
26947;DHT22;14501;52.282;10.560;2023-01-31T17:05:21;5.80;99.90
26947;DHT22;14501;52.282;10.560;2023-01-31T17:07:47;8.30;99.90
26947;DHT22;14501;52.282;10.560;2023-01-31T17:10:25;5.80;99.90
26947;DHT22;14501;52.282;10.560;2023-01-31T17:12:58;5.80;99.90
26947;DHT22;14501;52.282;10.560;2023-01-31T17:15:24;6.50;99.90
26947;DHT22;14501;52.282;10.560;2023-01-31T17:17:50;5.80;99.90
26947;DHT22;14501;52.282;10.560;2023-01-31T17:20:19;5.70;99.90
26947;DHT22;14501;52.282;10.560;2023-01-31T17:22:46;5.60;99.90
26947;DHT22;14501;52.282;10.560;2023-01-31T17:25:21;5.60;99.90
26947;DHT22;14501;52.282;10.560;2023-01-31T17:27:48;5.60;99.90
26947;DHT22;14501;52.282;10.560;2023-01-31T17:30:17;5.50;99.90
26947;DHT22;14501;52.282;10.560;2023-01-31T17:32:43;5.50;99.90
26947;DHT22;14501;52.282;10.560;2023-01-31T17:35:29;5.40;99.90
26947;DHT22;14501;52.282;10.560;2023-01-31T17:37:55;5.10;99.90
26947;DHT22;14501;52.282;10.560;2023-01-31T17:40:22;5.30;99.90
26947;DHT22;14501;52.282;10.560;2023-01-31T17:42:52;5.20;99.90
26947;DHT22;14501;52.282;10.560;2023-01-31T17:45:18;5.30;99.90
26947;DHT22;14501;52.282;10.560;2023-01-31T17:47:44;5.30;99.90
26947;DHT22;14501;52.282;10.560;2023-01-31T17:50:20;5.30;99.90
26947;DHT22;14501;52.282;10.560;2023-01-31T17:52:46;5.30;99.90
26947;DHT22;14501;52.282;10.560;2023-01-31T17:55:13;5.10;99.90
26947;DHT22;14501;52.282;10.560;2023-01-31T17:57:39;5.20;99.90
26947;DHT22;14501;52.282;10.560;2023-01-31T18:00:07;5.30;99.90
26947;DHT22;14501;52.282;10.560;2023-01-31T18:02:35;5.20;99.90
26947;DHT22;14501;52.282;10.560;2023-01-31T18:05:01;5.30;99.90
26947;DHT22;14501;52.282;10.560;2023-01-31T18:07:27;5.10;99.90
26947;DHT22;14501;52.282;10.560;2023-01-31T18:12:19;5.00;99.90
26947;DHT22;14501;52.282;10.560;2023-01-31T18:19:36;5.10;99.90
26947;DHT22;14501;52.282;10.560;2023-01-31T18:22:02;5.00;99.90
26947;DHT22;14501;52.282;10.560;2023-01-31T18:24:29;5.10;99.90